Time;durP1;ratioP1;P1;durP2;ratioP2;P2;SDS_P1;SDS_P2;PMS_P1;PMS_P2;Temp;Humidity;BMP_temperature;BMP_pressure;BME280_temperature;BME280_humidity;BME280_pressure;Samples;Min_cycle;Max_cycle;Signal;HPM_P1;HPM_P2
2022/03/02 00:00:41;;;;;;;0.20;0.20;;;;;;;;;;5000100;28;20241;-67
2022/03/02 00:03:08;;;;;;;0.20;0.20;;;;;;;;;;5017465;28;20219;-67
2022/03/02 00:05:36;;;;;;;0.20;0.20;;;;;;;;;;4999710;28;20575;-66
2022/03/02 00:08:03;;;;;;;0.20;0.20;;;;;;;;;;5017125;28;20194;-65
2022/03/02 00:10:29;;;;;;;0.20;0.20;;;;;;;;;;4999089;28;20490;-68
2022/03/02 00:12:55;;;;;;;2.20;2.10;;;;;;;;;;5017997;28;20237;-66
2022/03/02 00:15:22;;;;;;;0.20;0.20;;;;;;;;;;4997995;28;20209;-67
2022/03/02 00:17:49;;;;;;;0.20;0.20;;;;;;;;;;5019121;28;20489;-66
2022/03/02 00:20:16;;;;;;;0.20;0.20;;;;;;;;;;4997166;28;20253;-69
2022/03/02 00:22:42;;;;;;;0.20;0.20;;;;;;;;;;5019551;28;20218;-65
2022/03/02 00:25:09;;;;;;;0.20;0.20;;;;;;;;;;4996123;28;20394;-66
2022/03/02 00:27:35;;;;;;;0.20;0.20;;;;;;;;;;5020150;28;20186;-66
2022/03/02 00:30:01;;;;;;;0.27;0.27;;;;;;;;;;5005481;28;20249;-66
2022/03/02 00:32:28;;;;;;;0.20;0.20;;;;;;;;;;5010440;28;20286;-71
2022/03/02 00:34:55;;;;;;;0.20;0.20;;;;;;;;;;5005784;28;20423;-70
2022/03/02 00:37:22;;;;;;;0.30;0.30;;;;;;;;;;5010627;28;20241;-71
2022/03/02 00:39:48;;;;;;;0.20;0.20;;;;;;;;;;5005534;28;20252;-70
2022/03/02 00:42:14;;;;;;;0.30;0.30;;;;;;;;;;5010442;28;20287;-70
2022/03/02 00:44:41;;;;;;;0.20;0.20;;;;;;;;;;5005596;28;20466;-70
2022/03/02 01:26:46;;;;;;;0.20;0.20;;;;;;;;;;5006996;28;20459;-70
2022/03/02 01:29:12;;;;;;;0.20;0.20;;;;;;;;;;5006846;28;20213;-70
2022/03/02 01:31:44;;;;;;;0.20;0.20;;;;;;;;;;5006224;28;20584;-70
2022/03/02 01:34:10;;;;;;;0.30;0.30;;;;;;;;;;5006784;28;20292;-70
2022/03/02 01:36:36;;;;;;;0.20;0.20;;;;;;;;;;5005780;28;20295;-72
2022/03/02 01:39:02;;;;;;;0.20;0.20;;;;;;;;;;5007726;28;20211;-70
2022/03/02 01:41:29;;;;;;;0.20;0.20;;;;;;;;;;5004480;28;20240;-70
2022/03/02 01:43:56;;;;;;;0.30;0.30;;;;;;;;;;5008388;28;20456;-71
2022/03/02 01:46:23;;;;;;;0.20;0.20;;;;;;;;;;5003772;28;20242;-70
2022/03/02 01:48:49;;;;;;;0.20;0.20;;;;;;;;;;5009576;28;20272;-70
2022/03/02 01:51:16;;;;;;;0.20;0.20;;;;;;;;;;5002783;28;20248;-71
2022/03/02 01:53:42;;;;;;;0.20;0.20;;;;;;;;;;5010050;28;20206;-71
2022/03/02 01:56:09;;;;;;;0.27;0.27;;;;;;;;;;5002037;28;20241;-70
2022/03/02 01:58:35;;;;;;;0.20;0.20;;;;;;;;;;5011093;28;20206;-70
2022/03/02 02:01:03;;;;;;;0.20;0.20;;;;;;;;;;5001015;28;20292;-70
2022/03/02 02:03:30;;;;;;;0.20;0.20;;;;;;;;;;5011834;28;20281;-71
2022/03/02 02:05:56;;;;;;;0.20;0.20;;;;;;;;;;5000356;28;20291;-70
2022/03/02 02:08:23;;;;;;;0.20;0.20;;;;;;;;;;5012625;28;20265;-71
2022/03/02 02:10:50;;;;;;;0.20;0.20;;;;;;;;;;4999508;28;20245;-70
2022/03/02 02:13:16;;;;;;;0.20;0.20;;;;;;;;;;5013289;28;20544;-69
2022/03/02 02:15:42;;;;;;;0.20;0.20;;;;;;;;;;4998474;28;20287;-70
2022/03/02 02:18:10;;;;;;;0.20;0.20;;;;;;;;;;5014112;28;20591;-70
2022/03/02 02:20:38;;;;;;;0.20;0.20;;;;;;;;;;4997653;28;20263;-70
2022/03/02 02:23:05;;;;;;;0.20;0.20;;;;;;;;;;5014904;28;20230;-69
2022/03/02 02:25:32;;;;;;;0.20;0.20;;;;;;;;;;4997060;28;20284;-69
2022/03/02 02:27:58;;;;;;;0.20;0.20;;;;;;;;;;5015324;28;20221;-70
2022/03/02 02:30:24;;;;;;;0.20;0.20;;;;;;;;;;4996331;28;20261;-70
2022/03/02 02:32:50;;;;;;;0.20;0.20;;;;;;;;;;5016115;28;20612;-74
2022/03/02 02:35:17;;;;;;;0.20;0.20;;;;;;;;;;4995280;28;20404;-74
2022/03/02 02:37:44;;;;;;;0.20;0.20;;;;;;;;;;5017207;28;20194;-75
2022/03/02 02:40:12;;;;;;;0.20;0.20;;;;;;;;;;4994298;28;20218;-74
2022/03/02 02:42:39;;;;;;;0.83;0.83;;;;;;;;;;5017566;28;20269;-74
2022/03/02 02:45:06;;;;;;;0.20;0.20;;;;;;;;;;4998125;28;20207;-74
2022/03/02 02:47:32;;;;;;;0.20;0.20;;;;;;;;;;5018424;28;20268;-76
2022/03/02 02:49:58;;;;;;;0.20;0.20;;;;;;;;;;5003514;28;20309;-74
2022/03/02 02:52:25;;;;;;;0.20;0.20;;;;;;;;;;5008736;28;20268;-74
2022/03/02 02:54:52;;;;;;;0.20;0.20;;;;;;;;;;5006581;28;20210;-74
2022/03/02 02:57:18;;;;;;;0.30;0.30;;;;;;;;;;5012399;28;20600;-75
2022/03/02 02:59:45;;;;;;;0.20;0.20;;;;;;;;;;5007467;28;20206;-75
2022/03/02 03:02:11;;;;;;;0.20;0.20;;;;;;;;;;5012616;28;20466;-76
2022/03/02 03:04:37;;;;;;;0.23;0.23;;;;;;;;;;5007414;28;20229;-75
2022/03/02 03:07:03;;;;;;;0.20;0.20;;;;;;;;;;5012053;28;20240;-75
2022/03/02 03:09:30;;;;;;;0.20;0.20;;;;;;;;;;5007385;28;20206;-75
2022/03/02 03:11:57;;;;;;;0.20;0.20;;;;;;;;;;5010801;28;20240;-75
2022/03/02 03:14:23;;;;;;;0.20;0.20;;;;;;;;;;5008026;28;20301;-74
2022/03/02 03:16:50;;;;;;;0.20;0.20;;;;;;;;;;5010544;28;20286;-75
2022/03/02 03:19:17;;;;;;;0.87;0.87;;;;;;;;;;5008999;28;20210;-74
2022/03/02 03:21:43;;;;;;;0.20;0.20;;;;;;;;;;5009092;28;20248;-75
2022/03/02 03:24:09;;;;;;;0.20;0.20;;;;;;;;;;5009928;28;20238;-75
2022/03/02 03:26:35;;;;;;;0.20;0.20;;;;;;;;;;5008158;28;20638;-75
2022/03/02 03:29:03;;;;;;;0.20;0.20;;;;;;;;;;5010605;28;20298;-75
2022/03/02 03:31:29;;;;;;;1.47;1.47;;;;;;;;;;5007520;28;20249;-74
2022/03/02 03:33:55;;;;;;;0.20;0.20;;;;;;;;;;5011036;28;20229;-75
2022/03/02 03:36:21;;;;;;;0.20;0.20;;;;;;;;;;5006161;28;20288;-75
2022/03/02 03:38:48;;;;;;;0.20;0.20;;;;;;;;;;5012212;28;20206;-75
2022/03/02 03:41:14;;;;;;;0.20;0.20;;;;;;;;;;5005526;28;20482;-75
2022/03/02 03:43:40;;;;;;;1.47;1.47;;;;;;;;;;5013297;28;20226;-75
2022/03/02 03:46:08;;;;;;;0.20;0.20;;;;;;;;;;5004064;28;20269;-75
2022/03/02 03:48:34;;;;;;;0.20;0.20;;;;;;;;;;5013669;28;20252;-75
2022/03/02 03:51:00;;;;;;;0.20;0.20;;;;;;;;;;5003506;28;20264;-75
2022/03/02 03:53:27;;;;;;;0.30;0.30;;;;;;;;;;5014921;28;20428;-75
2022/03/02 03:55:53;;;;;;;0.20;0.20;;;;;;;;;;5002649;28;20304;-76
2022/03/02 03:58:19;;;;;;;0.27;0.27;;;;;;;;;;5015584;28;20245;-76
2022/03/02 04:00:46;;;;;;;0.20;0.20;;;;;;;;;;5001422;28;20300;-74
2022/03/02 04:03:14;;;;;;;0.20;0.20;;;;;;;;;;5016133;28;20229;-74
2022/03/02 04:05:40;;;;;;;0.20;0.20;;;;;;;;;;5000060;28;20241;-73
2022/03/02 04:08:08;;;;;;;0.20;0.20;;;;;;;;;;5017044;28;20206;-73
2022/03/02 04:10:34;;;;;;;0.20;0.20;;;;;;;;;;4999966;28;20519;-75
2022/03/02 04:13:01;;;;;;;0.20;0.20;;;;;;;;;;5017276;28;20564;-75
2022/03/02 04:15:27;;;;;;;0.20;0.20;;;;;;;;;;4998791;28;20237;-75
2022/03/02 04:17:53;;;;;;;0.20;0.20;;;;;;;;;;5018527;28;20528;-75
2022/03/02 04:20:21;;;;;;;0.20;0.20;;;;;;;;;;4997750;28;20548;-75
2022/03/02 04:22:49;;;;;;;0.20;0.20;;;;;;;;;;5019196;28;20194;-75
2022/03/02 04:25:15;;;;;;;0.20;0.20;;;;;;;;;;4997099;28;20238;-75
2022/03/02 04:27:41;;;;;;;1.93;1.93;;;;;;;;;;5019852;28;20385;-74
2022/03/02 04:30:08;;;;;;;0.20;0.20;;;;;;;;;;4995967;28;20539;-74
2022/03/02 04:32:37;;;;;;;0.20;0.20;;;;;;;;;;5020331;28;20284;-75
2022/03/02 04:35:03;;;;;;;0.20;0.20;;;;;;;;;;5005794;28;20217;-75
2022/03/02 04:37:31;;;;;;;0.20;0.20;;;;;;;;;;4978423;28;20253;-75
2022/03/02 04:39:58;;;;;;;0.47;0.47;;;;;;;;;;5005715;28;20236;-75
2022/03/02 04:42:24;;;;;;;0.20;0.20;;;;;;;;;;5010664;28;20319;-75
2022/03/02 04:44:50;;;;;;;0.20;0.20;;;;;;;;;;5005658;28;20276;-75
2022/03/02 04:47:16;;;;;;;0.27;0.27;;;;;;;;;;5010573;28;20488;-75
2022/03/02 04:49:43;;;;;;;0.20;0.20;;;;;;;;;;5005469;28;20206;-75
2022/03/02 04:52:09;;;;;;;0.20;0.20;;;;;;;;;;5010484;28;20424;-75
2022/03/02 04:57:20;;;;;;;0.20;0.20;;;;;;;;;;5010117;28;20295;-74
2022/03/02 04:59:46;;;;;;;0.20;0.20;;;;;;;;;;5005102;28;20206;-74
2022/03/02 05:02:13;;;;;;;0.20;0.20;;;;;;;;;;5010258;28;20307;-75
2022/03/02 05:04:39;;;;;;;0.20;0.20;;;;;;;;;;5005055;28;20251;-75
2022/03/02 05:07:05;;;;;;;0.20;0.20;;;;;;;;;;5009979;28;20241;-75
2022/03/02 05:09:31;;;;;;;0.20;0.20;;;;;;;;;;5004878;28;20256;-75
2022/03/02 05:11:59;;;;;;;0.20;0.20;;;;;;;;;;5008949;28;20478;-75
2022/03/02 05:14:25;;;;;;;0.20;0.20;;;;;;;;;;5005683;28;20241;-74
2022/03/02 05:16:52;;;;;;;0.20;0.20;;;;;;;;;;5007293;28;20241;-75
2022/03/02 05:19:18;;;;;;;0.20;0.20;;;;;;;;;;5006660;28;20449;-75
2022/03/02 05:21:44;;;;;;;0.20;0.20;;;;;;;;;;5006989;28;20268;-75
2022/03/02 05:24:10;;;;;;;1.50;1.50;;;;;;;;;;5007229;28;20541;-75
2022/03/02 05:26:36;;;;;;;0.20;0.20;;;;;;;;;;5006382;28;20245;-75
2022/03/02 05:29:04;;;;;;;0.50;0.50;;;;;;;;;;5007967;28;20214;-75
2022/03/02 05:31:30;;;;;;;0.30;0.30;;;;;;;;;;5005445;28;20621;-76
2022/03/02 05:33:56;;;;;;;0.20;0.20;;;;;;;;;;5008525;28;20253;-65
2022/03/02 05:36:23;;;;;;;0.20;0.20;;;;;;;;;;5004202;28;20241;-65
2022/03/02 05:38:49;;;;;;;0.20;0.20;;;;;;;;;;5009433;28;20269;-63
2022/03/02 05:41:15;;;;;;;0.40;0.40;;;;;;;;;;5003023;28;20267;-64
2022/03/02 05:43:41;;;;;;;0.20;0.20;;;;;;;;;;5010242;28;20281;-63
2022/03/02 05:46:09;;;;;;;0.20;0.20;;;;;;;;;;5001943;28;20272;-64
2022/03/02 05:48:36;;;;;;;0.20;0.20;;;;;;;;;;5011594;28;20252;-63
2022/03/02 05:51:03;;;;;;;0.20;0.20;;;;;;;;;;5001476;28;20241;-63
2022/03/02 05:53:29;;;;;;;0.20;0.20;;;;;;;;;;5011818;28;20424;-63
2022/03/02 05:55:55;;;;;;;0.20;0.20;;;;;;;;;;5000365;28;20340;-64
2022/03/02 05:58:21;;;;;;;0.57;0.57;;;;;;;;;;5013071;28;20212;-63
2022/03/02 06:00:48;;;;;;;0.20;0.20;;;;;;;;;;4998968;28;20303;-64
2022/03/02 06:03:15;;;;;;;0.20;0.20;;;;;;;;;;5014437;28;20248;-64
2022/03/02 06:05:42;;;;;;;0.20;0.20;;;;;;;;;;4998275;28;20247;-64
2022/03/02 06:08:09;;;;;;;0.20;0.20;;;;;;;;;;5014858;28;20194;-63
2022/03/02 06:10:36;;;;;;;0.20;0.20;;;;;;;;;;4997636;28;20237;-63
2022/03/02 06:13:03;;;;;;;0.30;0.30;;;;;;;;;;5014946;28;20199;-63
2022/03/02 06:15:31;;;;;;;0.27;0.27;;;;;;;;;;4996809;28;20240;-64
2022/03/02 06:18:01;;;;;;;0.97;0.77;;;;;;;;;;5015567;28;20221;-65
2022/03/02 06:20:29;;;;;;;0.20;0.20;;;;;;;;;;4996334;28;20564;-66
2022/03/02 06:22:55;;;;;;;0.27;0.27;;;;;;;;;;5016393;28;20380;-64
2022/03/02 06:25:21;;;;;;;0.20;0.20;;;;;;;;;;4995701;28;20563;-64
2022/03/02 06:27:48;;;;;;;0.20;0.20;;;;;;;;;;5016557;28;20278;-64
2022/03/02 06:30:14;;;;;;;0.30;0.30;;;;;;;;;;4994426;28;20229;-64
2022/03/02 06:32:40;;;;;;;1.23;1.23;;;;;;;;;;5017091;28;20288;-75
2022/03/02 06:35:07;;;;;;;0.20;0.20;;;;;;;;;;4993783;28;20513;-72
2022/03/02 06:37:35;;;;;;;0.20;0.20;;;;;;;;;;5018561;28;20201;-75
2022/03/02 06:40:01;;;;;;;0.20;0.20;;;;;;;;;;5003523;28;20206;-75
2022/03/02 06:42:33;;;;;;;0.20;0.20;;;;;;;;;;5008674;28;20296;-75
2022/03/02 06:45:01;;;;;;;0.20;0.20;;;;;;;;;;5003605;28;20217;-74
2022/03/02 06:47:29;;;;;;;0.23;0.23;;;;;;;;;;5008544;28;20275;-75
2022/03/02 06:49:59;;;;;;;0.20;0.20;;;;;;;;;;5003192;28;20244;-74
2022/03/02 06:52:28;;;;;;;1.13;1.13;;;;;;;;;;5008459;28;20241;-76
2022/03/02 06:54:55;;;;;;;0.20;0.20;;;;;;;;;;5003238;28;20272;-75
2022/03/02 06:57:25;;;;;;;0.20;0.20;;;;;;;;;;5008410;28;20245;-75
2022/03/02 06:59:52;;;;;;;0.20;0.20;;;;;;;;;;5003253;28;20244;-75
2022/03/02 07:02:22;;;;;;;0.20;0.20;;;;;;;;;;5008493;28;20242;-75
2022/03/02 07:04:48;;;;;;;0.30;0.30;;;;;;;;;;5003086;28;20269;-75
2022/03/02 07:07:15;;;;;;;0.20;0.20;;;;;;;;;;5008451;28;20245;-75
2022/03/02 07:09:41;;;;;;;0.20;0.20;;;;;;;;;;5003555;28;20206;-76
2022/03/02 07:12:09;;;;;;;0.20;0.20;;;;;;;;;;5008450;28;20252;-76
2022/03/02 07:14:36;;;;;;;0.20;0.20;;;;;;;;;;5003391;28;20260;-77
2022/03/02 07:17:04;;;;;;;0.20;0.20;;;;;;;;;;5007704;28;20248;-77
2022/03/02 07:19:30;;;;;;;0.20;0.20;;;;;;;;;;5003286;28;20559;-75
2022/03/02 07:21:56;;;;;;;0.20;0.20;;;;;;;;;;5007191;28;20321;-76
2022/03/02 07:24:25;;;;;;;0.20;0.20;;;;;;;;;;5004045;28;20227;-76
2022/03/02 07:26:52;;;;;;;0.30;0.30;;;;;;;;;;5006349;28;20265;-75
2022/03/02 07:29:20;;;;;;;1.83;1.73;;;;;;;;;;5005124;28;20210;-74
2022/03/02 07:31:46;;;;;;;0.20;0.20;;;;;;;;;;5005842;28;20249;-77
2022/03/02 07:34:14;;;;;;;0.30;0.30;;;;;;;;;;5005618;28;20260;-75
2022/03/02 07:36:41;;;;;;;0.20;0.20;;;;;;;;;;5005262;28;20622;-76
2022/03/02 07:39:08;;;;;;;0.20;0.20;;;;;;;;;;5006146;28;20206;-76
2022/03/02 07:41:34;;;;;;;0.20;0.20;;;;;;;;;;5006653;28;20248;-76
2022/03/02 07:44:00;;;;;;;0.20;0.20;;;;;;;;;;5010589;28;20411;-75
2022/03/02 07:46:28;;;;;;;0.20;0.20;;;;;;;;;;5006762;28;20277;-76
2022/03/02 07:48:54;;;;;;;0.20;0.20;;;;;;;;;;5011153;28;20266;-76
2022/03/02 07:51:22;;;;;;;0.20;0.20;;;;;;;;;;5005879;28;20237;-76
2022/03/02 07:53:49;;;;;;;0.20;0.20;;;;;;;;;;5012014;28;20510;-77
2022/03/02 07:56:15;;;;;;;0.20;0.20;;;;;;;;;;5005350;28;20295;-74
2022/03/02 07:58:44;;;;;;;2.47;2.27;;;;;;;;;;5012499;28;20210;-77
2022/03/02 08:01:13;;;;;;;0.20;0.20;;;;;;;;;;5004144;28;20248;-77
2022/03/02 08:03:42;;;;;;;0.20;0.20;;;;;;;;;;5012898;28;20259;-74
2022/03/02 08:06:09;;;;;;;0.20;0.20;;;;;;;;;;5004078;28;20245;-74
2022/03/02 08:08:36;;;;;;;0.20;0.20;;;;;;;;;;5013466;28;20218;-76
2022/03/02 08:11:02;;;;;;;0.20;0.20;;;;;;;;;;5003514;28;20249;-75
2022/03/02 08:13:29;;;;;;;0.20;0.20;;;;;;;;;;5013719;28;20203;-76
2022/03/02 08:15:56;;;;;;;0.53;0.53;;;;;;;;;;5002275;28;20250;-75
2022/03/02 08:18:22;;;;;;;0.20;0.20;;;;;;;;;;5014903;28;20438;-77
2022/03/02 08:20:50;;;;;;;0.20;0.20;;;;;;;;;;5000982;28;20438;-65
2022/03/02 08:23:19;;;;;;;0.10;0.10;;;;;;;;;;5015680;28;20377;-65
2022/03/02 08:25:46;;;;;;;0.20;0.20;;;;;;;;;;5000835;28;20415;-66
2022/03/02 08:28:15;;;;;;;1.33;1.33;;;;;;;;;;5015262;28;20216;-65
2022/03/02 08:30:42;;;;;;;0.10;0.10;;;;;;;;;;4999234;28;20240;-66
2022/03/02 08:33:09;;;;;;;0.40;0.40;;;;;;;;;;5016580;28;20553;-65
2022/03/02 08:35:39;;;;;;;0.10;0.10;;;;;;;;;;4998217;28;20253;-66
2022/03/02 08:38:07;;;;;;;0.10;0.10;;;;;;;;;;5017409;28;20198;-66
2022/03/02 08:40:33;;;;;;;0.10;0.10;;;;;;;;;;4998666;28;20242;-65
2022/03/02 08:43:01;;;;;;;0.17;0.17;;;;;;;;;;5017024;28;20216;-65
2022/03/02 08:45:29;;;;;;;0.10;0.10;;;;;;;;;;4996715;28;20231;-66
2022/03/02 08:47:56;;;;;;;0.10;0.10;;;;;;;;;;5018771;28;20503;-66
2022/03/02 08:50:23;;;;;;;0.10;0.10;;;;;;;;;;4997139;28;20208;-66
2022/03/02 08:52:52;;;;;;;0.10;0.10;;;;;;;;;;5017112;28;20197;-64
2022/03/02 08:55:20;;;;;;;0.10;0.10;;;;;;;;;;4996873;28;20205;-76
2022/03/02 08:57:47;;;;;;;0.10;0.10;;;;;;;;;;5018640;28;20202;-77
2022/03/02 09:00:14;;;;;;;0.10;0.10;;;;;;;;;;4996299;28;20206;-78
2022/03/02 09:02:42;;;;;;;0.10;0.10;;;;;;;;;;5019211;28;20195;-77
2022/03/02 09:05:08;;;;;;;0.10;0.10;;;;;;;;;;4995422;28;20298;-77
2022/03/02 09:07:41;;;;;;;0.00;0.00;;;;;;;;;;5020008;28;20277;-78
2022/03/02 09:10:15;;;;;;;0.10;0.10;;;;;;;;;;5005018;28;20194;-77
2022/03/02 09:12:43;;;;;;;0.10;0.10;;;;;;;;;;5010059;28;20241;-77
2022/03/02 09:15:09;;;;;;;0.10;0.10;;;;;;;;;;4995523;28;20247;-78
2022/03/02 09:17:36;;;;;;;0.10;0.10;;;;;;;;;;5019509;28;20232;-76
2022/03/02 09:20:04;;;;;;;0.10;0.10;;;;;;;;;;5004845;28;20284;-76
2022/03/02 09:22:31;;;;;;;0.13;0.13;;;;;;;;;;5010168;28;20399;-76
2022/03/02 09:24:57;;;;;;;0.10;0.10;;;;;;;;;;5004549;28;20555;-77
2022/03/02 09:27:27;;;;;;;0.10;0.10;;;;;;;;;;5009723;28;20249;-77
2022/03/02 09:29:57;;;;;;;0.10;0.10;;;;;;;;;;5004856;28;20251;-77
2022/03/02 09:32:24;;;;;;;0.10;0.10;;;;;;;;;;5009795;28;20243;-79
2022/03/02 09:34:54;;;;;;;0.10;0.10;;;;;;;;;;5004906;28;20204;-77
2022/03/02 09:37:21;;;;;;;0.10;0.10;;;;;;;;;;5009991;28;20580;-76
2022/03/02 09:39:49;;;;;;;0.10;0.10;;;;;;;;;;5004505;28;20235;-77
2022/03/02 09:42:19;;;;;;;0.10;0.10;;;;;;;;;;5009691;28;20476;-79
2022/03/02 09:44:46;;;;;;;0.47;0.47;;;;;;;;;;5004246;28;20230;-77
2022/03/02 09:47:17;;;;;;;0.20;0.20;;;;;;;;;;5009631;28;20245;-77
2022/03/02 09:49:46;;;;;;;0.10;0.10;;;;;;;;;;5004398;28;20216;-77
2022/03/02 09:52:15;;;;;;;0.10;0.10;;;;;;;;;;5009384;28;20425;-76
2022/03/02 09:54:45;;;;;;;0.10;0.10;;;;;;;;;;5004287;28;20245;-75
2022/03/02 09:57:11;;;;;;;0.10;0.10;;;;;;;;;;5009263;28;20287;-76
2022/03/02 09:59:38;;;;;;;0.10;0.10;;;;;;;;;;5003795;28;20214;-76
2022/03/02 10:02:06;;;;;;;0.10;0.10;;;;;;;;;;5008955;28;20241;-74
2022/03/02 10:04:36;;;;;;;0.10;0.10;;;;;;;;;;5003360;28;20277;-75
2022/03/02 10:09:52;;;;;;;0.10;0.10;;;;;;;;;;5003930;28;20185;-75
2022/03/02 10:12:20;;;;;;;0.10;0.10;;;;;;;;;;5009255;28;20245;-75
2022/03/02 10:14:46;;;;;;;0.10;0.10;;;;;;;;;;5003923;28;20301;-76
2022/03/02 10:17:16;;;;;;;0.10;0.10;;;;;;;;;;5008657;28;20592;-77
2022/03/02 10:19:45;;;;;;;0.10;0.10;;;;;;;;;;5003558;28;20236;-75
2022/03/02 10:22:21;;;;;;;0.10;0.10;;;;;;;;;;5009019;28;20311;-78
2022/03/02 10:24:49;;;;;;;0.10;0.10;;;;;;;;;;5003832;28;20262;-77
2022/03/02 10:27:25;;;;;;;0.10;0.10;;;;;;;;;;5008700;28;20244;-76
2022/03/02 10:29:57;;;;;;;0.08;0.08;;;;;;;;;;5003988;28;20197;-76
2022/03/02 10:32:24;;;;;;;0.10;0.10;;;;;;;;;;5008741;28;20264;-79
2022/03/02 10:34:54;;;;;;;0.10;0.10;;;;;;;;;;5003903;28;20209;-79
2022/03/02 10:37:30;;;;;;;0.00;0.00;;;;;;;;;;5008610;28;20612;-76
2022/03/02 10:39:58;;;;;;;0.10;0.10;;;;;;;;;;5003773;28;20194;-77
2022/03/02 10:42:25;;;;;;;0.00;0.00;;;;;;;;;;5008757;28;20435;-79
2022/03/02 10:45:02;;;;;;;0.00;0.00;;;;;;;;;;5003874;28;20215;-79
2022/03/02 10:47:30;;;;;;;0.00;0.00;;;;;;;;;;5009081;28;20271;-78
2022/03/02 10:49:59;;;;;;;0.10;0.10;;;;;;;;;;5003691;28;20214;-77
2022/03/02 10:52:26;;;;;;;0.08;0.08;;;;;;;;;;5008608;28;20248;-75
2022/03/02 10:54:54;;;;;;;0.10;0.10;;;;;;;;;;5003526;28;20208;-75
2022/03/02 10:57:21;;;;;;;0.00;0.00;;;;;;;;;;5008557;28;20289;-74
2022/03/02 10:59:48;;;;;;;0.05;0.05;;;;;;;;;;5003617;28;20208;-76
2022/03/02 11:02:15;;;;;;;0.00;0.00;;;;;;;;;;5008431;28;20243;-78
2022/03/02 11:04:42;;;;;;;0.45;0.32;;;;;;;;;;5003351;28;20327;-77
2022/03/02 11:07:10;;;;;;;0.00;0.00;;;;;;;;;;5008631;28;20244;-78
2022/03/02 11:09:38;;;;;;;0.10;0.10;;;;;;;;;;5003524;28;20209;-77
2022/03/02 11:12:05;;;;;;;0.00;0.00;;;;;;;;;;5008354;28;20481;-77
2022/03/02 11:14:32;;;;;;;0.10;0.10;;;;;;;;;;5003894;28;20207;-76
2022/03/02 11:17:11;;;;;;;0.10;0.10;;;;;;;;;;5010790;28;20294;-78
2022/03/02 11:19:43;;;;;;;0.03;0.03;;;;;;;;;;5007338;28;20219;-77
2022/03/02 11:22:12;;;;;;;0.00;0.00;;;;;;;;;;5012270;28;20522;-77
2022/03/02 11:24:39;;;;;;;0.00;0.00;;;;;;;;;;5007339;28;20251;-78
2022/03/02 11:27:05;;;;;;;2.25;2.17;;;;;;;;;;5011899;28;20295;-77
2022/03/02 11:29:31;;;;;;;0.00;0.00;;;;;;;;;;5007178;28;20417;-77
2022/03/02 11:31:58;;;;;;;0.00;0.00;;;;;;;;;;5010905;28;20251;-77
2022/03/02 11:34:25;;;;;;;0.10;0.10;;;;;;;;;;5008704;28;20197;-77
2022/03/02 11:36:53;;;;;;;0.10;0.10;;;;;;;;;;5010262;28;20255;-79
2022/03/02 11:39:23;;;;;;;0.00;0.00;;;;;;;;;;5008908;28;20211;-78
2022/03/02 11:41:51;;;;;;;0.00;0.00;;;;;;;;;;5010546;28;20244;-77
2022/03/02 11:44:28;;;;;;;0.00;0.00;;;;;;;;;;5008354;28;20209;-77
2022/03/02 11:46:54;;;;;;;0.00;0.00;;;;;;;;;;5010101;28;20257;-78
2022/03/02 11:49:20;;;;;;;0.00;0.00;;;;;;;;;;5007807;28;20212;-78
2022/03/02 11:52:04;;;;;;;0.10;0.10;;;;;;;;;;5009454;28;20255;-78
2022/03/02 11:54:40;;;;;;;0.00;0.00;;;;;;;;;;5006779;28;20262;-77
2022/03/02 11:57:06;;;;;;;0.10;0.10;;;;;;;;;;5011474;28;20286;-77
2022/03/02 11:59:35;;;;;;;0.05;0.05;;;;;;;;;;5006668;28;20215;-77
2022/03/02 12:02:01;;;;;;;0.10;0.10;;;;;;;;;;5010894;28;20242;-78
2022/03/02 12:04:28;;;;;;;0.00;0.00;;;;;;;;;;5006997;28;20215;-79
2022/03/02 12:06:55;;;;;;;0.10;0.10;;;;;;;;;;5008473;28;20249;-78
2022/03/02 12:09:23;;;;;;;0.10;0.10;;;;;;;;;;5008917;28;20395;-78
2022/03/02 12:11:51;;;;;;;0.08;0.08;;;;;;;;;;5009394;28;20278;-77
2022/03/02 12:14:17;;;;;;;0.10;0.10;;;;;;;;;;5008084;28;20213;-79
2022/03/02 12:16:46;;;;;;;0.10;0.10;;;;;;;;;;5007914;28;20251;-78
2022/03/02 12:19:20;;;;;;;0.00;0.00;;;;;;;;;;5009235;28;20211;-79
2022/03/02 12:21:47;;;;;;;0.85;0.85;;;;;;;;;;5008792;28;20247;-78
2022/03/02 12:24:14;;;;;;;0.00;0.00;;;;;;;;;;5008342;28;20209;-77
2022/03/02 12:26:46;;;;;;;0.00;0.00;;;;;;;;;;5007856;28;20316;-79
2022/03/02 12:29:14;;;;;;;0.10;0.10;;;;;;;;;;5007778;28;20260;-78
2022/03/02 12:31:41;;;;;;;0.00;0.00;;;;;;;;;;5007896;28;20243;-78
2022/03/02 12:34:11;;;;;;;0.10;0.10;;;;;;;;;;5008800;28;20245;-76
2022/03/02 12:36:38;;;;;;;0.10;0.10;;;;;;;;;;5007457;28;20351;-78
2022/03/02 12:39:04;;;;;;;0.10;0.10;;;;;;;;;;5009144;28;20208;-78
2022/03/02 12:41:30;;;;;;;0.10;0.10;;;;;;;;;;5006430;28;20502;-75
2022/03/02 12:43:57;;;;;;;0.10;0.10;;;;;;;;;;5009863;28;20203;-75
2022/03/02 12:46:26;;;;;;;0.10;0.10;;;;;;;;;;5005479;28;20588;-77
2022/03/02 12:48:54;;;;;;;0.83;0.83;;;;;;;;;;5010639;28;20210;-77
2022/03/02 12:51:21;;;;;;;0.10;0.10;;;;;;;;;;5005144;28;20242;-78
2022/03/02 12:53:48;;;;;;;0.73;0.73;;;;;;;;;;5010805;28;20206;-73
2022/03/02 12:56:14;;;;;;;0.10;0.10;;;;;;;;;;5004122;28;20449;-76
2022/03/02 12:58:41;;;;;;;0.07;0.07;;;;;;;;;;5011653;28;20317;-74
2022/03/02 13:01:07;;;;;;;0.00;0.00;;;;;;;;;;5003195;28;20491;-75
2022/03/02 13:03:38;;;;;;;0.10;0.10;;;;;;;;;;5012532;28;20210;-73
2022/03/02 13:06:06;;;;;;;0.10;0.10;;;;;;;;;;5002630;28;20237;-75
2022/03/02 13:08:37;;;;;;;0.10;0.10;;;;;;;;;;5012430;28;20378;-74
2022/03/02 13:11:03;;;;;;;0.10;0.10;;;;;;;;;;5002312;28;20270;-75
2022/03/02 13:13:34;;;;;;;0.10;0.10;;;;;;;;;;5012731;28;20314;-73
2022/03/02 13:16:15;;;;;;;0.10;0.10;;;;;;;;;;5001594;28;20295;-75
2022/03/02 13:18:42;;;;;;;0.10;0.10;;;;;;;;;;5011263;28;20235;-74
2022/03/02 13:21:16;;;;;;;0.10;0.10;;;;;;;;;;5002559;28;20241;-74
2022/03/02 13:23:57;;;;;;;0.10;0.10;;;;;;;;;;5010824;28;20277;-77
2022/03/02 13:26:23;;;;;;;0.10;0.10;;;;;;;;;;5004305;28;20244;-75
2022/03/02 13:28:59;;;;;;;0.10;0.10;;;;;;;;;;5010020;28;20209;-75
2022/03/02 13:31:25;;;;;;;0.10;0.10;;;;;;;;;;5004826;28;20622;-73
2022/03/02 13:34:06;;;;;;;0.10;0.10;;;;;;;;;;5009448;28;20239;-75
2022/03/02 13:36:34;;;;;;;0.10;0.10;;;;;;;;;;5005844;28;20240;-75
2022/03/02 13:39:07;;;;;;;0.10;0.10;;;;;;;;;;5007707;28;20254;-74
2022/03/02 13:41:43;;;;;;;0.10;0.10;;;;;;;;;;5005382;28;20247;-75
2022/03/02 13:44:23;;;;;;;0.10;0.10;;;;;;;;;;5007186;28;20207;-76
2022/03/02 13:47:08;;;;;;;0.10;0.10;;;;;;;;;;5007041;28;20259;-75
2022/03/02 13:49:50;;;;;;;0.10;0.10;;;;;;;;;;5004184;28;20213;-76
2022/03/02 13:52:18;;;;;;;0.10;0.10;;;;;;;;;;5001705;28;59036;-75
2022/03/02 13:54:45;;;;;;;0.10;0.10;;;;;;;;;;5003970;28;20223;-76
2022/03/02 13:57:17;;;;;;;0.10;0.10;;;;;;;;;;5009158;28;20271;-77
2022/03/02 13:59:43;;;;;;;0.10;0.10;;;;;;;;;;5004336;28;20485;-76
2022/03/02 14:02:10;;;;;;;0.00;0.00;;;;;;;;;;5009162;28;20242;-75
2022/03/02 14:04:42;;;;;;;0.10;0.10;;;;;;;;;;5004058;28;20207;-76
2022/03/02 14:07:08;;;;;;;0.00;0.00;;;;;;;;;;5009024;28;20240;-74
2022/03/02 14:09:36;;;;;;;0.00;0.00;;;;;;;;;;5004036;28;20208;-74
2022/03/02 14:12:03;;;;;;;0.10;0.10;;;;;;;;;;5008502;28;20467;-73
2022/03/02 14:14:32;;;;;;;0.10;0.10;;;;;;;;;;5003989;28;20225;-75
2022/03/02 14:17:00;;;;;;;0.10;0.10;;;;;;;;;;5008131;28;20237;-75
2022/03/02 14:19:28;;;;;;;0.10;0.10;;;;;;;;;;5004348;28;20217;-74
2022/03/02 14:21:56;;;;;;;0.10;0.10;;;;;;;;;;5006635;28;20756;-74
2022/03/02 14:24:23;;;;;;;0.10;0.10;;;;;;;;;;5005658;28;20206;-73
2022/03/02 14:26:55;;;;;;;0.10;0.10;;;;;;;;;;5006611;28;20243;-74
2022/03/02 14:29:21;;;;;;;0.10;0.10;;;;;;;;;;5004825;28;20277;-72
2022/03/02 14:31:51;;;;;;;0.10;0.10;;;;;;;;;;5006197;28;20243;-73
2022/03/02 14:34:17;;;;;;;0.10;0.10;;;;;;;;;;5005300;28;20240;-74
2022/03/02 14:36:43;;;;;;;0.10;0.10;;;;;;;;;;5005786;28;20237;-74
2022/03/02 14:39:10;;;;;;;0.10;0.10;;;;;;;;;;5006347;28;20206;-77
2022/03/02 14:41:36;;;;;;;0.10;0.10;;;;;;;;;;5005157;28;20247;-77
2022/03/02 14:44:12;;;;;;;0.10;0.10;;;;;;;;;;5007933;28;20216;-66
2022/03/02 14:46:39;;;;;;;0.10;0.10;;;;;;;;;;5004979;28;20243;-67
2022/03/02 14:49:07;;;;;;;0.10;0.10;;;;;;;;;;5007294;28;20500;-77
2022/03/02 14:51:33;;;;;;;0.10;0.10;;;;;;;;;;5009006;28;20242;-77
2022/03/02 14:53:59;;;;;;;0.10;0.10;;;;;;;;;;5012033;28;20255;-76
2022/03/02 14:56:28;;;;;;;0.00;0.00;;;;;;;;;;5007646;28;20247;-77
2022/03/02 14:58:56;;;;;;;0.00;0.00;;;;;;;;;;5012745;28;20207;-76
2022/03/02 15:01:24;;;;;;;0.10;0.10;;;;;;;;;;5007149;28;20308;-77
2022/03/02 15:03:51;;;;;;;0.10;0.10;;;;;;;;;;5012981;28;20427;-74
2022/03/02 15:06:19;;;;;;;0.10;0.10;;;;;;;;;;5006721;28;20240;-76
2022/03/02 15:08:46;;;;;;;0.00;0.00;;;;;;;;;;5013581;28;20260;-78
2022/03/02 15:11:14;;;;;;;0.10;0.10;;;;;;;;;;5006111;28;20526;-76
2022/03/02 15:16:36;;;;;;;0.00;0.00;;;;;;;;;;5008288;28;20287;-77
2022/03/02 15:19:02;;;;;;;0.10;0.10;;;;;;;;;;5011518;28;20261;-77
2022/03/02 15:21:28;;;;;;;0.10;0.10;;;;;;;;;;5007318;28;20475;-77
2022/03/02 15:23:55;;;;;;;0.10;0.10;;;;;;;;;;5012814;28;20445;-77
2022/03/02 15:26:21;;;;;;;0.10;0.10;;;;;;;;;;5006731;28;20240;-77
2022/03/02 15:28:59;;;;;;;0.10;0.10;;;;;;;;;;5012554;28;20519;-77
2022/03/02 15:31:25;;;;;;;0.10;0.10;;;;;;;;;;5007341;28;20486;-77
2022/03/02 15:33:53;;;;;;;0.10;0.10;;;;;;;;;;5011934;28;20437;-77